createdAt,value
2017-12-08T00:00:07.039Z,100455.11
2017-12-08T00:02:12.918Z,100450.41
2017-12-08T00:04:16.116Z,100462.01
2017-12-08T00:06:21.964Z,100448.67
2017-12-08T00:08:25.483Z,100460.78
2017-12-08T00:18:48.836Z,100450.00
2017-12-08T00:21:40.717Z,100451.67
2017-12-08T00:23:42.972Z,100457.77
2017-12-08T00:25:52.042Z,100455.22
2017-12-08T00:27:54.238Z,100466.91
2017-12-08T00:29:56.762Z,100454.86
2017-12-08T00:31:59.007Z,100456.27
2017-12-08T00:34:02.004Z,100458.42
2017-12-08T00:36:04.550Z,100458.42
2017-12-08T00:38:07.743Z,100457.30
2017-12-08T00:40:10.291Z,100454.41
2017-12-08T00:42:13.717Z,100454.06
2017-12-08T00:44:15.988Z,100459.24
2017-12-08T00:46:21.277Z,100463.20
2017-12-08T00:48:23.232Z,100464.13
2017-12-08T00:50:27.275Z,100466.73
2017-12-08T00:52:32.279Z,100480.07
2017-12-08T00:54:36.213Z,100460.80
2017-12-08T00:56:42.050Z,100469.50
2017-12-08T00:58:45.206Z,100465.72
2017-12-08T01:00:50.009Z,100465.39
2017-12-08T01:02:52.653Z,100474.34
2017-12-08T01:04:55.188Z,100479.59
2017-12-08T01:07:15.271Z,100484.23
2017-12-08T01:09:24.404Z,100476.23
2017-12-08T01:13:14.564Z,100484.95
2017-12-08T01:15:19.926Z,100491.45
2017-12-08T01:17:31.249Z,100489.36
2017-12-08T01:19:33.252Z,100489.42
2017-12-08T01:21:35.216Z,100490.73
2017-12-08T01:23:37.976Z,100492.56
2017-12-08T01:25:41.048Z,100498.22
2017-12-08T01:27:43.726Z,100493.09
2017-12-08T01:29:48.056Z,100490.08
2017-12-08T01:31:50.931Z,100494.45
2017-12-08T01:33:54.732Z,100494.90
2017-12-08T01:35:57.285Z,100492.32
2017-12-08T01:38:10.011Z,100499.72
2017-12-08T01:40:12.887Z,100493.37
2017-12-08T01:42:16.695Z,100504.53
2017-12-08T01:44:19.611Z,100507.98
2017-12-08T01:46:23.003Z,100511.52
2017-12-08T01:48:25.574Z,100503.43
2017-12-08T01:50:27.933Z,100504.72
2017-12-08T01:52:30.724Z,100504.33
2017-12-08T01:54:36.976Z,100511.25
2017-12-08T01:56:41.797Z,100503.12
2017-12-08T01:58:50.513Z,100507.41
2017-12-08T02:00:54.684Z,100505.28
2017-12-08T02:02:58.277Z,100509.20
2017-12-08T02:05:02.567Z,100512.67
2017-12-08T02:07:08.402Z,100508.09
2017-12-08T02:09:10.972Z,100499.52
2017-12-08T02:11:14.056Z,100502.61
2017-12-08T02:13:17.858Z,100503.89
2017-12-08T02:15:21.977Z,100506.95
2017-12-08T02:25:58.814Z,100511.85
2017-12-08T02:38:14.379Z,100513.94
2017-12-08T02:42:47.481Z,100521.77
2017-12-08T02:44:49.935Z,100518.78
2017-12-08T02:46:52.093Z,100532.58
2017-12-08T02:48:54.963Z,100530.54
2017-12-08T02:50:58.409Z,100522.78
2017-12-08T02:53:11.900Z,100525.48
2017-12-08T02:55:15.610Z,100517.36
2017-12-08T02:57:18.499Z,100538.44
2017-12-08T02:59:20.962Z,100532.63
2017-12-08T03:09:58.916Z,100518.52
2017-12-08T03:12:02.922Z,100524.98
2017-12-08T03:14:13.720Z,100531.56
2017-12-08T03:16:15.752Z,100534.94
2017-12-08T03:18:25.090Z,100519.50
2017-12-08T03:20:28.764Z,100520.87
2017-12-08T03:22:30.927Z,100511.44
2017-12-08T03:24:34.459Z,100520.06
2017-12-08T03:26:37.444Z,100520.09
2017-12-08T03:28:40.018Z,100517.16
2017-12-08T03:30:42.895Z,100512.45
2017-12-08T03:32:45.243Z,100521.15
2017-12-08T03:34:48.968Z,100511.72
2017-12-08T03:36:51.529Z,100505.84
2017-12-08T03:38:53.918Z,100510.58
2017-12-08T03:40:56.610Z,100499.89
2017-12-08T03:42:59.877Z,100510.18
2017-12-08T03:45:03.765Z,100506.83
2017-12-08T03:47:06.975Z,100508.14
2017-12-08T03:49:10.764Z,100510.77
2017-12-08T03:51:20.529Z,100503.16
2017-12-08T03:53:24.423Z,100510.05
2017-12-08T03:55:27.240Z,100505.37
2017-12-08T03:57:31.119Z,100503.75
2017-12-08T03:59:33.825Z,100506.41
2017-12-08T04:01:38.006Z,100506.88
2017-12-08T04:03:40.450Z,100509.98
2017-12-08T04:05:42.973Z,100523.80
2017-12-08T04:07:45.730Z,100527.66
2017-12-08T04:09:48.603Z,100513.17
2017-12-08T04:11:51.372Z,100533.76
2017-12-08T04:13:55.853Z,100526.09
2017-12-08T04:15:58.607Z,100525.25
2017-12-08T04:32:40.493Z,100540.34
2017-12-08T04:34:44.723Z,100527.48
2017-12-08T04:36:47.525Z,100531.42
2017-12-08T04:38:50.575Z,100531.87
2017-12-08T04:40:56.923Z,100540.88
2017-12-08T04:42:59.780Z,100529.33
2017-12-08T04:45:03.010Z,100534.47
2017-12-08T04:47:05.399Z,100530.67
2017-12-08T04:49:07.971Z,100527.70
2017-12-08T04:51:20.238Z,100523.98
2017-12-08T04:53:25.412Z,100528.31
2017-12-08T04:55:27.248Z,100522.02
2017-12-08T04:57:29.736Z,100527.22
2017-12-08T04:59:32.925Z,100529.00
2017-12-08T05:01:39.403Z,100527.80
2017-12-08T05:03:47.734Z,100537.64
2017-12-08T05:05:49.771Z,100532.50
2017-12-08T05:07:51.932Z,100532.97
2017-12-08T05:09:54.763Z,100540.30
2017-12-08T05:11:57.004Z,100534.73
2017-12-08T05:13:58.937Z,100529.19
2017-12-08T05:16:01.645Z,100529.72
2017-12-08T05:18:05.416Z,100530.19
2017-12-08T05:20:10.073Z,100532.79
2017-12-08T05:22:17.735Z,100531.58
2017-12-08T05:24:24.531Z,100535.08
2017-12-08T05:26:27.088Z,100530.88
2017-12-08T05:28:31.791Z,100526.69
2017-12-08T05:30:35.442Z,100528.00
2017-12-08T05:32:37.905Z,100528.86
2017-12-08T05:34:40.788Z,100531.48
2017-12-08T05:36:45.923Z,100530.64
2017-12-08T05:38:48.800Z,100521.72
2017-12-08T05:40:51.522Z,100525.66
2017-12-08T05:42:53.957Z,100524.05
2017-12-08T05:44:56.654Z,100523.72
2017-12-08T05:46:58.910Z,100516.56
2017-12-08T05:49:02.404Z,100516.92
2017-12-08T05:51:05.532Z,100522.48
2017-12-08T05:53:07.562Z,100525.56
2017-12-08T05:55:12.667Z,100517.87
2017-12-08T05:57:16.063Z,100523.09
2017-12-08T05:59:19.621Z,100519.26
2017-12-08T06:01:24.291Z,100523.98
2017-12-08T06:03:27.946Z,100522.77
2017-12-08T06:05:30.897Z,100522.41
2017-12-08T06:07:35.976Z,100531.02
2017-12-08T06:09:38.526Z,100533.66
2017-12-08T06:11:41.004Z,100522.59
2017-12-08T06:13:43.987Z,100529.60
2017-12-08T06:15:47.087Z,100526.13
2017-12-08T06:17:49.872Z,100521.94
2017-12-08T06:19:52.287Z,100523.64
2017-12-08T06:21:55.826Z,100525.51
2017-12-08T06:23:58.631Z,100521.65
2017-12-08T06:26:01.082Z,100523.88
2017-12-08T06:34:04.925Z,100522.44
2017-12-08T06:36:07.943Z,100528.86
2017-12-08T06:38:11.134Z,100527.26
2017-12-08T06:46:18.350Z,100529.95
2017-12-08T06:48:20.452Z,100524.90
2017-12-08T06:50:22.331Z,100533.08
2017-12-08T06:52:24.847Z,100537.84
2017-12-08T06:54:28.449Z,100554.16
2017-12-08T06:56:31.919Z,100547.81
2017-12-08T06:58:34.009Z,100557.74
2017-12-08T07:00:46.698Z,100563.16
2017-12-08T07:02:51.818Z,100561.16
2017-12-08T07:04:54.056Z,100574.95
2017-12-08T07:06:56.284Z,100570.53
2017-12-08T07:08:58.460Z,100572.05
2017-12-08T07:11:00.700Z,100564.28
2017-12-08T07:13:02.408Z,100569.82
2017-12-08T07:15:04.337Z,100569.77
2017-12-08T07:17:06.722Z,100575.75
2017-12-08T07:19:08.454Z,100566.56
2017-12-08T07:21:10.465Z,100566.56
2017-12-08T07:23:12.264Z,100566.22
2017-12-08T07:25:14.305Z,100563.66
2017-12-08T07:27:16.518Z,100571.02
2017-12-08T07:31:38.940Z,100572.70
2017-12-08T07:33:41.905Z,100574.51
2017-12-08T07:35:45.011Z,100579.64
2017-12-08T07:37:47.870Z,100583.91
2017-12-08T07:39:49.931Z,100585.04
2017-12-08T07:41:52.748Z,100583.81
2017-12-08T07:43:55.645Z,100576.13
2017-12-08T07:48:19.794Z,100557.83
2017-12-08T07:50:24.254Z,100563.44
2017-12-08T08:07:41.201Z,100574.41
2017-12-08T08:09:50.975Z,100568.06
2017-12-08T08:11:56.803Z,100579.27
2017-12-08T08:13:59.405Z,100568.63
2017-12-08T08:16:04.191Z,100576.77
2017-12-08T08:18:10.464Z,100571.22
2017-12-08T08:31:02.814Z,100575.36
2017-12-08T08:37:46.326Z,100571.53
2017-12-08T08:39:51.755Z,100571.58
2017-12-08T08:58:45.282Z,100548.72
2017-12-08T09:00:52.012Z,100545.33
2017-12-08T09:02:54.746Z,100542.41
2017-12-08T09:04:59.320Z,100542.91
2017-12-08T09:07:09.489Z,100539.90
2017-12-08T09:09:14.427Z,100542.12
2017-12-08T09:11:23.387Z,100540.44
2017-12-08T09:13:28.286Z,100535.30
2017-12-08T09:15:36.458Z,100546.50
2017-12-08T09:17:39.846Z,100557.19
2017-12-08T09:19:55.442Z,100542.23
2017-12-08T09:22:00.297Z,100542.65
2017-12-08T09:24:26.751Z,100546.08
2017-12-08T09:26:37.034Z,100542.72
2017-12-08T09:35:12.420Z,100561.67
2017-12-08T09:39:24.028Z,100553.06
2017-12-08T09:41:27.729Z,100565.98
2017-12-08T09:43:31.140Z,100561.67
2017-12-08T09:45:34.858Z,100571.16
2017-12-08T09:47:41.005Z,100571.23
2017-12-08T10:01:08.907Z,100578.48
2017-12-08T10:07:27.186Z,100582.47
2017-12-08T10:09:31.500Z,100566.56
2017-12-08T10:11:39.911Z,100567.84
2017-12-08T10:13:44.997Z,100577.25
2017-12-08T10:22:36.616Z,100566.39
2017-12-08T10:24:42.006Z,100561.38
2017-12-08T10:35:08.153Z,100570.29
2017-12-08T10:37:28.379Z,100561.82
2017-12-08T10:39:33.494Z,100548.92
2017-12-08T10:41:39.970Z,100544.59
2017-12-08T10:43:43.482Z,100544.12
2017-12-08T10:45:47.716Z,100545.80
2017-12-08T10:49:05.442Z,100533.47
2017-12-08T10:51:11.759Z,100539.04
2017-12-08T10:53:21.342Z,100534.05
2017-12-08T10:55:24.735Z,100531.89
2017-12-08T10:57:31.874Z,100526.70
2017-12-08T10:59:34.073Z,100525.33
2017-12-08T11:01:54.338Z,100526.97
2017-12-08T11:08:39.534Z,100530.95
2017-12-08T11:10:43.944Z,100537.75
2017-12-08T11:12:49.285Z,100528.90
2017-12-08T11:14:54.535Z,100534.91
2017-12-08T11:16:59.128Z,100525.91
2017-12-08T11:19:01.878Z,100526.70
2017-12-08T11:21:09.138Z,100529.20
2017-12-08T11:23:15.463Z,100534.73
2017-12-08T11:28:31.605Z,100524.34
2017-12-08T11:30:38.673Z,100530.46
2017-12-08T11:34:49.755Z,100519.29
2017-12-08T11:37:28.530Z,100518.17
2017-12-08T11:39:32.015Z,100519.41
2017-12-08T11:41:35.720Z,100522.33
2017-12-08T11:48:23.638Z,100521.48
2017-12-08T11:50:29.122Z,100526.13
2017-12-08T11:52:32.923Z,100525.26
2017-12-08T11:56:49.539Z,100534.66
2017-12-08T11:58:53.366Z,100525.33
2017-12-08T12:00:56.971Z,100529.90
2017-12-08T12:03:00.752Z,100527.84
2017-12-08T12:05:10.688Z,100526.13
2017-12-08T12:07:14.098Z,100531.18
2017-12-08T12:09:19.115Z,100529.09
2017-12-08T12:11:22.709Z,100529.27
2017-12-08T12:13:27.261Z,100535.66
2017-12-08T12:15:33.323Z,100540.53
2017-12-08T12:23:45.985Z,100553.72
2017-12-08T12:28:12.497Z,100549.51
2017-12-08T12:34:18.777Z,100567.83
2017-12-08T12:36:22.709Z,100568.77
2017-12-08T12:42:31.981Z,100593.69
2017-12-08T12:52:27.289Z,100613.84
2017-12-08T12:54:31.009Z,100620.27
2017-12-08T12:56:33.892Z,100618.96
2017-12-08T12:58:39.765Z,100622.81
2017-12-08T13:00:42.857Z,100619.40
2017-12-08T13:02:45.857Z,100621.98
2017-12-08T13:04:48.796Z,100616.84
2017-12-08T13:06:50.972Z,100626.67
2017-12-08T13:08:53.454Z,100619.00
2017-12-08T13:10:56.768Z,100639.14
2017-12-08T13:12:58.884Z,100639.12
2017-12-08T13:15:01.987Z,100632.73
2017-12-08T13:17:05.067Z,100637.48
2017-12-08T13:19:07.553Z,100638.37
2017-12-08T13:21:09.891Z,100635.01
2017-12-08T13:23:13.616Z,100644.83
2017-12-08T13:25:16.740Z,100640.98
2017-12-08T13:27:18.928Z,100635.01
2017-12-08T13:29:21.361Z,100634.15
2017-12-08T13:32:59.030Z,100639.30
2017-12-08T13:35:01.824Z,100635.45
2017-12-08T13:37:04.710Z,100634.61
2017-12-08T13:39:06.960Z,100647.90
2017-12-08T13:41:09.552Z,100653.47
2017-12-08T13:43:12.765Z,100645.79
2017-12-08T13:45:14.890Z,100651.81
2017-12-08T13:47:17.688Z,100657.33
2017-12-08T13:49:19.950Z,100645.86
2017-12-08T13:51:23.469Z,100622.83
2017-12-08T13:53:31.449Z,100628.38
2017-12-08T13:55:39.292Z,100638.28
2017-12-08T13:57:41.319Z,100645.44
2017-12-08T13:59:43.251Z,100640.36
2017-12-08T14:01:45.246Z,100645.92
2017-12-08T14:03:47.266Z,100642.14
2017-12-08T14:05:49.271Z,100643.49
2017-12-08T14:07:51.232Z,100648.54
2017-12-08T14:09:53.269Z,100646.01
2017-12-08T14:11:55.429Z,100646.48
2017-12-08T14:13:57.318Z,100649.91
2017-12-08T14:15:59.270Z,100651.20
2017-12-08T14:18:01.285Z,100654.27
2017-12-08T14:20:03.235Z,100645.77
2017-12-08T14:22:05.320Z,100653.46
2017-12-08T14:24:07.430Z,100647.91
2017-12-08T14:26:09.235Z,100644.48
2017-12-08T14:28:11.206Z,100642.36
2017-12-08T14:30:13.167Z,100651.33
2017-12-08T14:32:15.227Z,100648.35
2017-12-08T14:34:17.257Z,100651.33
2017-12-08T14:36:19.281Z,100644.94
2017-12-08T14:38:21.320Z,100645.87
2017-12-08T14:40:23.206Z,100642.08
2017-12-08T14:42:25.273Z,100650.19
2017-12-08T14:44:27.260Z,100639.45
2017-12-08T14:46:29.268Z,100643.28
2017-12-08T14:48:31.241Z,100643.36
2017-12-08T14:50:33.231Z,100635.22
2017-12-08T14:52:35.278Z,100643.36
2017-12-08T14:54:37.259Z,100643.36
2017-12-08T14:56:39.256Z,100650.20
2017-12-08T14:58:41.736Z,100636.67
2017-12-08T15:00:43.594Z,100646.80
2017-12-08T15:02:45.231Z,100641.73
2017-12-08T15:04:47.209Z,100643.48
2017-12-08T15:07:24.878Z,100654.97
2017-12-08T15:09:26.934Z,100657.11
2017-12-08T15:11:29.095Z,100692.59
2017-12-08T15:13:31.115Z,100699.84
2017-12-08T15:15:33.155Z,100710.16
2017-12-08T15:17:35.197Z,100699.06
2017-12-08T15:19:37.258Z,100687.59
2017-12-08T15:21:39.280Z,100697.84
2017-12-08T15:23:41.269Z,100696.98
2017-12-08T15:25:43.298Z,100703.94
2017-12-08T15:27:45.658Z,100715.84
2017-12-08T15:29:47.781Z,100716.76
2017-12-08T15:31:49.731Z,100712.93
2017-12-08T15:33:51.644Z,100710.38
2017-12-08T15:35:53.292Z,100716.42
2017-12-08T15:37:55.336Z,100714.30
2017-12-08T15:39:57.326Z,100720.28
2017-12-08T15:41:59.327Z,100728.50
2017-12-08T15:44:01.395Z,100737.47
2017-12-08T15:46:03.387Z,100737.11
2017-12-08T15:48:05.291Z,100748.66
2017-12-08T15:50:07.283Z,100750.36
2017-12-08T15:52:09.296Z,100751.22
2017-12-08T15:54:11.506Z,100764.04
2017-12-08T15:56:13.292Z,100768.33
2017-12-08T15:58:15.276Z,100788.94
2017-12-08T16:00:17.265Z,100777.04
2017-12-08T16:02:19.710Z,100779.25
2017-12-08T16:04:21.694Z,100769.07
2017-12-08T16:06:23.665Z,100762.23
2017-12-08T16:08:25.285Z,100752.41
2017-12-08T16:10:27.304Z,100739.59
2017-12-08T16:12:29.266Z,100738.83
2017-12-08T16:14:31.689Z,100748.27
2017-12-08T16:16:33.274Z,100748.27
2017-12-08T16:18:35.257Z,100749.13
2017-12-08T16:20:37.260Z,100763.66
2017-12-08T16:22:39.325Z,100767.94
2017-12-08T16:24:41.253Z,100765.48
2017-12-08T16:26:44.234Z,100765.06
2017-12-08T16:28:46.306Z,100768.11
2017-12-08T16:30:48.294Z,100757.89
2017-12-08T16:32:50.306Z,100749.77
2017-12-08T16:34:53.028Z,100748.92
2017-12-08T16:36:55.066Z,100748.56
2017-12-08T16:38:57.102Z,100746.91
2017-12-08T16:40:59.373Z,100750.74
2017-12-08T16:43:01.430Z,100752.45
2017-12-08T16:45:03.280Z,100749.95
2017-12-08T16:47:05.309Z,100758.06
2017-12-08T16:49:07.327Z,100755.49
2017-12-08T16:51:09.318Z,100755.49
2017-12-08T16:53:11.331Z,100753.85
2017-12-08T16:55:13.315Z,100752.16
2017-12-08T16:57:15.316Z,100747.47
2017-12-08T16:59:17.275Z,100742.81
2017-12-08T17:01:19.324Z,100745.83
2017-12-08T17:03:21.411Z,100742.40
2017-12-08T17:05:23.286Z,100745.83
2017-12-08T17:07:25.289Z,100747.53
2017-12-08T17:09:27.297Z,100755.69
2017-12-08T17:11:29.309Z,100755.28
2017-12-08T17:13:31.437Z,100757.89
2017-12-08T17:15:33.746Z,100758.33
2017-12-08T17:17:35.710Z,100759.25
2017-12-08T17:19:37.404Z,100757.11
2017-12-08T17:21:39.335Z,100753.37
2017-12-08T17:23:41.901Z,100758.25
2017-12-08T17:25:44.111Z,100748.91
2017-12-08T17:27:46.249Z,100753.27
2017-12-08T17:29:48.281Z,100740.28
2017-12-08T17:31:50.540Z,100751.08
2017-12-08T17:33:52.298Z,100762.31
2017-12-08T17:35:54.406Z,100752.87
2017-12-08T17:37:56.281Z,100752.03
2017-12-08T17:39:58.317Z,100754.16
2017-12-08T17:42:00.272Z,100756.80
2017-12-08T17:44:02.541Z,100760.78
2017-12-08T17:46:04.239Z,100760.22
2017-12-08T17:48:06.277Z,100760.38
2017-12-08T17:50:08.300Z,100761.44
2017-12-08T17:52:10.285Z,100756.19
2017-12-08T17:54:12.434Z,100767.09
2017-12-08T17:56:14.414Z,100758.78
2017-12-08T17:58:16.422Z,100755.22
2017-12-08T18:00:18.506Z,100763.33
2017-12-08T18:02:20.277Z,100761.40
2017-12-08T18:04:22.374Z,100756.61
2017-12-08T18:06:24.422Z,100758.22
2017-12-08T18:08:26.305Z,100759.88
2017-12-08T18:10:28.309Z,100764.11
2017-12-08T18:12:30.268Z,100755.45
2017-12-08T18:14:32.330Z,100763.52
2017-12-08T18:16:37.420Z,100751.94
2017-12-08T18:18:39.269Z,100756.14
2017-12-08T18:20:41.290Z,100754.66
2017-12-08T18:22:43.373Z,100746.63
2017-12-08T18:24:46.703Z,100752.11
2017-12-08T18:26:48.646Z,100746.13
2017-12-08T18:28:50.432Z,100749.02
2017-12-08T18:30:52.323Z,100745.52
2017-12-08T18:32:54.299Z,100746.08
2017-12-08T18:34:56.293Z,100746.55
2017-12-08T18:37:03.545Z,100743.45
2017-12-08T18:39:09.314Z,100731.51
2017-12-08T18:41:12.527Z,100750.72
2017-12-08T18:43:16.871Z,100738.73
2017-12-08T18:45:51.955Z,100742.22
2017-12-08T18:50:09.182Z,100739.23
2017-12-08T18:52:15.817Z,100741.89
2017-12-08T18:54:23.835Z,100732.91
2017-12-08T19:02:55.786Z,100746.70
2017-12-08T19:07:30.104Z,100754.64
2017-12-08T19:09:51.988Z,100759.36
2017-12-08T19:12:06.911Z,100756.31
2017-12-08T19:14:12.724Z,100750.30
2017-12-08T19:16:47.131Z,100757.67
2017-12-08T19:18:49.801Z,100751.34
2017-12-08T19:20:56.917Z,100751.00
2017-12-08T19:23:02.260Z,100735.09
2017-12-08T19:25:31.913Z,100737.23
2017-12-08T19:27:34.206Z,100742.38
2017-12-08T19:30:01.023Z,100736.95
2017-12-08T19:32:04.779Z,100738.31
2017-12-08T19:34:10.031Z,100749.53
2017-12-08T19:40:48.611Z,100743.72
2017-12-08T19:45:14.234Z,100737.78
2017-12-08T19:47:17.378Z,100744.37
2017-12-08T19:49:38.232Z,100752.47
2017-12-08T19:51:52.217Z,100746.17
2017-12-08T19:55:43.349Z,100756.20
2017-12-08T19:57:45.922Z,100762.65
2017-12-08T19:59:51.924Z,100767.80
2017-12-08T20:01:59.394Z,100772.29
2017-12-08T20:04:04.648Z,100771.08
2017-12-08T20:10:38.623Z,100783.40
2017-12-08T20:12:42.967Z,100795.06
2017-12-08T20:14:52.905Z,100794.69
2017-12-08T20:16:55.262Z,100803.77
2017-12-08T20:21:24.076Z,100802.14
2017-12-08T20:23:27.548Z,100789.45
2017-12-08T20:31:40.583Z,100790.48
2017-12-08T20:34:16.785Z,100797.84
2017-12-08T20:38:52.705Z,100797.62
2017-12-08T20:41:01.505Z,100789.15
2017-12-08T20:43:04.681Z,100793.49
2017-12-08T20:45:15.414Z,100784.57
2017-12-08T20:47:19.523Z,100793.56
2017-12-08T20:49:31.771Z,100795.28
2017-12-08T20:51:36.373Z,100797.20
2017-12-08T20:53:40.556Z,100789.95
2017-12-08T21:00:28.908Z,100801.67
2017-12-08T21:02:31.821Z,100812.87
2017-12-08T21:04:36.257Z,100812.52
2017-12-08T21:06:42.210Z,100815.17
2017-12-08T21:08:47.589Z,100819.08
2017-12-08T21:10:52.917Z,100821.39
2017-12-08T21:12:56.856Z,100821.23
2017-12-08T21:15:34.051Z,100829.92
2017-12-08T21:17:38.586Z,100824.44
2017-12-08T21:19:44.667Z,100825.80
2017-12-08T21:21:47.608Z,100816.88
2017-12-08T21:23:53.679Z,100809.62
2017-12-08T21:25:59.715Z,100814.38
2017-12-08T21:32:50.209Z,100821.91
2017-12-08T21:34:54.525Z,100827.97
2017-12-08T21:36:57.458Z,100829.31
2017-12-08T21:39:18.084Z,100839.17
2017-12-08T21:44:07.956Z,100831.09
2017-12-08T21:47:01.404Z,100836.25
2017-12-08T21:51:16.721Z,100852.16
2017-12-08T21:53:22.094Z,100848.43
2017-12-08T21:55:33.827Z,100848.85
2017-12-08T21:57:41.753Z,100850.13
2017-12-08T22:00:22.084Z,100843.81
2017-12-08T22:10:33.230Z,100853.44
2017-12-08T22:12:42.548Z,100865.48
2017-12-08T22:18:57.938Z,100871.12
2017-12-08T22:21:05.587Z,100877.18
2017-12-08T22:23:17.851Z,100866.57
2017-12-08T22:37:51.888Z,100875.77
2017-12-08T22:39:57.823Z,100872.83
2017-12-08T22:44:15.686Z,100878.09
2017-12-08T22:49:00.523Z,100883.37
2017-12-08T22:51:03.745Z,100871.39
2017-12-08T22:53:10.263Z,100878.25
2017-12-08T22:55:17.095Z,100876.61
2017-12-08T22:57:21.850Z,100875.38
2017-12-08T22:59:26.580Z,100875.02
2017-12-08T23:01:37.064Z,100868.61
2017-12-08T23:03:41.291Z,100873.80
2017-12-08T23:07:28.420Z,100874.31
2017-12-08T23:09:35.289Z,100878.66
2017-12-08T23:11:38.612Z,100873.16
2017-12-08T23:13:59.448Z,100871.50
2017-12-08T23:16:03.860Z,100867.24
2017-12-08T23:18:11.271Z,100869.37
2017-12-08T23:22:33.496Z,100864.38
2017-12-08T23:24:35.290Z,100867.02
2017-12-08T23:26:37.691Z,100858.89
2017-12-08T23:28:42.294Z,100864.04
2017-12-08T23:30:44.232Z,100862.38
2017-12-08T23:41:09.439Z,100860.56
2017-12-08T23:43:12.549Z,100860.16
2017-12-08T23:45:22.531Z,100864.05
2017-12-08T23:47:27.947Z,100867.06
2017-12-08T23:49:32.657Z,100870.06
2017-12-08T23:51:36.875Z,100861.49
2017-12-08T23:53:39.842Z,100864.98
2017-12-08T23:55:49.448Z,100867.62
2017-12-08T23:57:51.671Z,100862.98
2017-12-08T23:59:53.739Z,100860.86
